Time;durP1;ratioP1;P1;durP2;ratioP2;P2;SDS_P1;SDS_P2;PMS_P1;PMS_P2;Temp;Humidity;BMP_temperature;BMP_pressure;BME280_temperature;BME280_humidity;BME280_pressure;Samples;Min_cycle;Max_cycle;Signal;HPM_P1;HPM_P2
2022/11/10 00:00:07;;;;;;;27.20;15.37;;;;;;;;;;5009879;28;20203;-64
2022/11/10 00:02:52;;;;;;;24.43;13.83;;;;;;;;;;5012220;28;20206;-64
2022/11/10 00:05:37;;;;;;;24.10;13.47;;;;;;;;;;5023517;28;20211;-64
2022/11/10 00:08:22;;;;;;;20.77;11.97;;;;;;;;;;5015858;28;20375;-64
2022/11/10 00:11:08;;;;;;;23.47;13.73;;;;;;;;;;5016317;28;20411;-64
2022/11/10 00:17:00;;;;;;;21.20;12.57;;;;;;;;;;5012129;28;20250;-64
2022/11/10 00:19:45;;;;;;;20.87;12.13;;;;;;;;;;5027139;28;20256;-65
2022/11/10 00:22:31;;;;;;;19.43;11.43;;;;;;;;;;5027100;28;20203;-64
2022/11/10 00:25:17;;;;;;;20.10;11.37;;;;;;;;;;5021469;28;20195;-64
2022/11/10 00:28:02;;;;;;;18.53;10.67;;;;;;;;;;5008301;28;20212;-64
2022/11/10 00:30:47;;;;;;;20.97;12.17;;;;;;;;;;5007841;28;20211;-65
2022/11/10 00:33:33;;;;;;;18.87;11.23;;;;;;;;;;5013229;28;20218;-64
2022/11/10 00:36:18;;;;;;;22.27;11.60;;;;;;;;;;5023946;28;20206;-64
2022/11/10 00:39:21;;;;;;;22.03;12.43;;;;;;;;;;5012666;28;20245;-64
2022/11/10 00:42:07;;;;;;;21.87;11.53;;;;;;;;;;5013596;28;20210;-64
2022/11/10 00:44:52;;;;;;;18.23;11.10;;;;;;;;;;5029381;28;20226;-64
2022/11/10 00:47:37;;;;;;;21.20;11.70;;;;;;;;;;5022585;28;20278;-64
2022/11/10 00:50:22;;;;;;;24.10;12.27;;;;;;;;;;5007671;28;20666;-64
2022/11/10 00:53:07;;;;;;;20.23;11.63;;;;;;;;;;5019301;28;20334;-64
2022/11/10 00:55:53;;;;;;;21.50;12.07;;;;;;;;;;5010462;28;20268;-64
2022/11/10 00:58:38;;;;;;;19.20;11.67;;;;;;;;;;5029205;28;20562;-64
2022/11/10 01:01:23;;;;;;;18.77;11.50;;;;;;;;;;5022446;28;20203;-64
2022/11/10 01:04:09;;;;;;;19.40;12.23;;;;;;;;;;5009236;28;20285;-64
2022/11/10 01:06:54;;;;;;;21.87;12.70;;;;;;;;;;5008512;28;20211;-64
2022/11/10 01:09:39;;;;;;;21.97;11.93;;;;;;;;;;5009046;28;20199;-65
2022/11/10 01:12:27;;;;;;;20.63;12.37;;;;;;;;;;5014252;28;20202;-64
2022/11/10 01:15:13;;;;;;;21.80;12.77;;;;;;;;;;5027023;28;20330;-64
2022/11/10 01:18:16;;;;;;;19.53;10.43;;;;;;;;;;5009434;28;20203;-65
2022/11/10 01:21:01;;;;;;;21.47;11.90;;;;;;;;;;5009289;28;20606;-64
2022/11/10 01:23:46;;;;;;;21.20;11.57;;;;;;;;;;5025864;28;20210;-65
2022/11/10 01:26:31;;;;;;;20.43;12.23;;;;;;;;;;5012751;28;20207;-65
2022/11/10 01:29:34;;;;;;;20.97;11.90;;;;;;;;;;5010629;28;20314;-65
2022/11/10 01:32:20;;;;;;;15.83;9.83;;;;;;;;;;5011942;28;20207;-64
2022/11/10 01:35:05;;;;;;;18.97;11.47;;;;;;;;;;5027882;28;20234;-65
2022/11/10 01:37:51;;;;;;;19.07;11.10;;;;;;;;;;5030809;28;20281;-64
2022/11/10 01:40:54;;;;;;;16.67;9.83;;;;;;;;;;5030887;28;20248;-64
2022/11/10 01:43:39;;;;;;;19.63;10.90;;;;;;;;;;5031789;28;20210;-65
2022/11/10 01:46:25;;;;;;;15.43;8.70;;;;;;;;;;5024022;28;20305;-64
2022/11/10 01:49:10;;;;;;;16.20;10.53;;;;;;;;;;5012474;28;20195;-64
2022/11/10 01:51:56;;;;;;;17.47;11.57;;;;;;;;;;5024984;28;20203;-64
2022/11/10 01:54:45;;;;;;;17.47;10.40;;;;;;;;;;5011127;28;20282;-65
2022/11/10 01:57:30;;;;;;;18.30;10.00;;;;;;;;;;5013700;28;20207;-64
2022/11/10 02:00:16;;;;;;;18.07;10.93;;;;;;;;;;5011957;28;20214;-64
2022/11/10 02:03:08;;;;;;;16.07;10.70;;;;;;;;;;5026861;28;20207;-65
2022/11/10 02:05:53;;;;;;;15.67;10.57;;;;;;;;;;5010921;28;20285;-65
2022/11/10 02:08:38;;;;;;;16.33;10.50;;;;;;;;;;5010383;28;20199;-65
2022/11/10 02:11:23;;;;;;;16.67;9.90;;;;;;;;;;5010405;28;20203;-65
2022/11/10 02:14:09;;;;;;;17.30;10.27;;;;;;;;;;5011694;28;20697;-65
2022/11/10 02:16:54;;;;;;;17.07;9.23;;;;;;;;;;5011405;28;20219;-65
2022/11/10 02:19:40;;;;;;;15.30;9.60;;;;;;;;;;5017471;28;20210;-65
2022/11/10 02:22:25;;;;;;;16.57;9.77;;;;;;;;;;5010693;28;20929;-65
2022/11/10 02:25:16;;;;;;;16.57;10.30;;;;;;;;;;5010725;28;20606;-65
2022/11/10 02:28:02;;;;;;;16.70;9.70;;;;;;;;;;5010635;28;20207;-65
2022/11/10 02:30:47;;;;;;;17.57;11.37;;;;;;;;;;5015042;28;20199;-65
2022/11/10 02:33:32;;;;;;;16.63;10.43;;;;;;;;;;5024000;28;20202;-65
2022/11/10 02:36:17;;;;;;;16.80;10.70;;;;;;;;;;5030162;28;20269;-64
2022/11/10 02:39:02;;;;;;;17.43;11.60;;;;;;;;;;5030901;28;20693;-64
2022/11/10 02:41:47;;;;;;;17.13;11.00;;;;;;;;;;5012799;28;20342;-65
2022/11/10 02:44:33;;;;;;;16.80;9.97;;;;;;;;;;5030969;28;20210;-65
2022/11/10 02:47:18;;;;;;;17.53;10.43;;;;;;;;;;5029594;28;20737;-64
2022/11/10 02:50:04;;;;;;;17.43;9.90;;;;;;;;;;5029300;28;20194;-65
2022/11/10 02:53:06;;;;;;;16.53;9.73;;;;;;;;;;5025760;28;20238;-64
2022/11/10 02:55:52;;;;;;;17.50;10.23;;;;;;;;;;5010264;28;20258;-65
2022/11/10 02:58:38;;;;;;;18.93;10.90;;;;;;;;;;5029077;28;20198;-65
2022/11/10 03:01:23;;;;;;;17.43;10.57;;;;;;;;;;5015740;28;20207;-65
2022/11/10 03:04:26;;;;;;;18.13;10.10;;;;;;;;;;5009770;28;20219;-66
2022/11/10 03:07:11;;;;;;;18.50;10.47;;;;;;;;;;5019877;28;20206;-65
2022/11/10 03:09:57;;;;;;;18.10;10.87;;;;;;;;;;5009520;28;20207;-65
2022/11/10 03:12:42;;;;;;;17.07;10.70;;;;;;;;;;5009730;28;21314;-65
2022/11/10 03:15:48;;;;;;;15.90;10.63;;;;;;;;;;5009593;28;20278;-65
2022/11/10 03:18:33;;;;;;;15.73;10.40;;;;;;;;;;5030179;28;20198;-65
2022/11/10 03:21:19;;;;;;;19.13;10.87;;;;;;;;;;5029606;28;20221;-65
2022/11/10 03:24:04;;;;;;;16.90;10.73;;;;;;;;;;5030116;28;20314;-64
2022/11/10 03:27:07;;;;;;;17.27;9.50;;;;;;;;;;5018450;28;20717;-64
2022/11/10 03:29:52;;;;;;;17.30;10.57;;;;;;;;;;5010568;28;20214;-65
2022/11/10 03:32:37;;;;;;;19.37;10.17;;;;;;;;;;5010348;28;20588;-65
2022/11/10 03:35:22;;;;;;;18.27;10.50;;;;;;;;;;5029435;28;20226;-65
2022/11/10 03:38:08;;;;;;;18.90;10.73;;;;;;;;;;5028341;28;20206;-65
2022/11/10 03:40:53;;;;;;;17.20;10.50;;;;;;;;;;5019295;28;20904;-65
2022/11/10 03:43:56;;;;;;;17.63;10.20;;;;;;;;;;5015629;28;20198;-65
2022/11/10 03:46:41;;;;;;;16.60;10.37;;;;;;;;;;5008531;28;20286;-64
2022/11/10 03:49:27;;;;;;;19.37;11.17;;;;;;;;;;5007065;28;20202;-66
2022/11/10 03:52:13;;;;;;;19.30;10.87;;;;;;;;;;5039107;28;20251;-65
2022/11/10 03:55:16;;;;;;;17.43;9.60;;;;;;;;;;5028969;28;20237;-66
2022/11/10 03:58:02;;;;;;;15.53;10.23;;;;;;;;;;5006503;28;20286;-66
2022/11/10 04:00:48;;;;;;;15.93;10.40;;;;;;;;;;5024154;28;20338;-67
2022/11/10 04:03:33;;;;;;;15.80;10.03;;;;;;;;;;5012742;28;20203;-68
2022/11/10 04:09:22;;;;;;;17.93;10.17;;;;;;;;;;5020238;28;20206;-65
2022/11/10 04:15:42;;;;;;;17.90;10.30;;;;;;;;;;5016887;28;20223;-66
2022/11/10 04:18:45;;;;;;;18.43;10.30;;;;;;;;;;5008439;28;20242;-66
2022/11/10 04:21:30;;;;;;;17.27;10.63;;;;;;;;;;5006507;28;20334;-65
2022/11/10 04:24:33;;;;;;;16.77;9.80;;;;;;;;;;5014449;28;20202;-65
2022/11/10 04:27:19;;;;;;;15.70;10.00;;;;;;;;;;5006531;28;20767;-68
2022/11/10 04:30:05;;;;;;;16.77;10.97;;;;;;;;;;5018014;28;20257;-66
2022/11/10 04:32:52;;;;;;;18.63;10.73;;;;;;;;;;5021614;28;20218;-68
2022/11/10 04:35:37;;;;;;;15.43;10.67;;;;;;;;;;5018487;28;20251;-68
2022/11/10 04:38:23;;;;;;;18.40;10.93;;;;;;;;;;5005768;28;20202;-66
2022/11/10 04:41:26;;;;;;;17.60;11.23;;;;;;;;;;5005856;28;20194;-67
2022/11/10 04:44:12;;;;;;;15.17;9.77;;;;;;;;;;5012051;28;20218;-66
2022/11/10 04:47:15;;;;;;;15.63;10.10;;;;;;;;;;5019323;28;20260;-66
2022/11/10 04:50:00;;;;;;;17.67;10.33;;;;;;;;;;5020314;28;20238;-67
2022/11/10 04:53:03;;;;;;;17.90;11.13;;;;;;;;;;5007676;28;20273;-67
2022/11/10 04:55:49;;;;;;;17.30;10.23;;;;;;;;;;5023562;28;20222;-67
2022/11/10 04:58:34;;;;;;;17.60;10.80;;;;;;;;;;5014924;28;20195;-67
2022/11/10 05:01:20;;;;;;;19.93;10.73;;;;;;;;;;5014676;28;20199;-67
2022/11/10 05:04:06;;;;;;;15.50;10.17;;;;;;;;;;5013001;28;20563;-67
2022/11/10 05:06:52;;;;;;;17.30;10.67;;;;;;;;;;5028430;28;20285;-67
2022/11/10 05:09:38;;;;;;;15.97;9.70;;;;;;;;;;5029701;28;20199;-67
2022/11/10 05:12:23;;;;;;;15.27;10.33;;;;;;;;;;5028018;28;20721;-66
2022/11/10 05:15:09;;;;;;;16.00;10.60;;;;;;;;;;5018259;28;20336;-67
2022/11/10 05:17:54;;;;;;;20.47;11.07;;;;;;;;;;5015456;28;20207;-66
2022/11/10 05:20:39;;;;;;;18.80;11.33;;;;;;;;;;5025974;28;20214;-66
2022/11/10 05:23:59;;;;;;;16.53;10.50;;;;;;;;;;5027505;28;20306;-67
2022/11/10 05:26:38;;;;;;;16.83;10.40;;;;;;;;;;5027953;28;20206;-66
2022/11/10 05:29:23;;;;;;;17.63;10.43;;;;;;;;;;5029252;28;20202;-66
2022/11/10 05:32:08;;;;;;;18.10;10.73;;;;;;;;;;5015461;28;20203;-66
2022/11/10 05:34:53;;;;;;;19.00;10.83;;;;;;;;;;5015366;28;20231;-66
2022/11/10 05:37:56;;;;;;;14.60;9.60;;;;;;;;;;5022738;28;20633;-65
2022/11/10 05:40:42;;;;;;;15.27;10.43;;;;;;;;;;5023208;28;20211;-66
2022/11/10 05:43:27;;;;;;;19.30;10.67;;;;;;;;;;5020016;28;20214;-66
2022/11/10 05:46:13;;;;;;;19.40;10.40;;;;;;;;;;5015076;28;20206;-66
2022/11/10 05:48:58;;;;;;;17.23;10.33;;;;;;;;;;5013232;28;20254;-67
2022/11/10 05:51:43;;;;;;;16.27;9.70;;;;;;;;;;5014138;28;20721;-67
2022/11/10 05:54:29;;;;;;;18.00;10.00;;;;;;;;;;5019135;28;20206;-67
2022/11/10 05:57:14;;;;;;;17.77;10.13;;;;;;;;;;5015660;28;20563;-67
2022/11/10 06:00:20;;;;;;;16.73;10.40;;;;;;;;;;5019857;28;20198;-68
2022/11/10 06:03:07;;;;;;;18.83;9.87;;;;;;;;;;5021086;28;20190;-66
2022/11/10 06:06:10;;;;;;;13.93;9.70;;;;;;;;;;5024526;28;20197;-67
2022/11/10 06:08:58;;;;;;;14.63;9.20;;;;;;;;;;5010826;28;20250;-68
2022/11/10 06:12:02;;;;;;;14.20;9.00;;;;;;;;;;5005417;28;20206;-68
2022/11/10 06:14:48;;;;;;;15.57;9.50;;;;;;;;;;5012443;28;20420;-67
2022/11/10 06:17:35;;;;;;;16.80;10.03;;;;;;;;;;5016935;28;20198;-68
2022/11/10 06:20:21;;;;;;;15.53;9.43;;;;;;;;;;5025899;28;20287;-68
2022/11/10 06:23:08;;;;;;;14.47;9.47;;;;;;;;;;5014571;28;20255;-69
2022/11/10 06:25:54;;;;;;;15.43;9.93;;;;;;;;;;5021591;28;20223;-67
2022/11/10 06:28:39;;;;;;;18.33;10.10;;;;;;;;;;5020469;28;20207;-67
2022/11/10 06:31:24;;;;;;;15.63;9.30;;;;;;;;;;5011470;28;20195;-67
2022/11/10 06:34:27;;;;;;;16.30;9.27;;;;;;;;;;5022426;28;20233;-67
2022/11/10 06:37:12;;;;;;;14.63;9.07;;;;;;;;;;5031228;28;20382;-67
2022/11/10 06:39:57;;;;;;;17.47;10.27;;;;;;;;;;5031129;28;20210;-66
2022/11/10 06:42:43;;;;;;;15.83;9.13;;;;;;;;;;5030424;28;20312;-67
2022/11/10 06:45:28;;;;;;;13.93;9.30;;;;;;;;;;5023834;28;20713;-67
2022/11/10 06:48:13;;;;;;;18.27;9.77;;;;;;;;;;5038393;28;20202;-67
2022/11/10 06:50:59;;;;;;;11.57;7.57;;;;;;;;;;5014832;28;20211;-67
2022/11/10 06:53:44;;;;;;;17.07;9.07;;;;;;;;;;5025268;28;20864;-67
2022/11/10 06:56:30;;;;;;;15.50;8.53;;;;;;;;;;5008310;28;20237;-68
2022/11/10 06:59:15;;;;;;;14.17;8.93;;;;;;;;;;5010989;28;20572;-67
2022/11/10 07:02:00;;;;;;;13.50;8.43;;;;;;;;;;5025898;28;20328;-67
2022/11/10 07:04:46;;;;;;;15.60;8.70;;;;;;;;;;5027259;28;20213;-67
2022/11/10 07:07:31;;;;;;;16.47;8.43;;;;;;;;;;5016620;28;20285;-68
2022/11/10 07:10:17;;;;;;;17.07;9.53;;;;;;;;;;5020090;28;20288;-67
2022/11/10 07:13:02;;;;;;;14.93;8.43;;;;;;;;;;5025462;28;20690;-66
2022/11/10 07:15:48;;;;;;;17.07;8.73;;;;;;;;;;5019618;28;20258;-67
2022/11/10 07:18:34;;;;;;;13.77;8.27;;;;;;;;;;5007369;28;20619;-67
2022/11/10 07:21:19;;;;;;;14.80;8.47;;;;;;;;;;5027163;28;20249;-67
2022/11/10 07:24:05;;;;;;;13.57;8.93;;;;;;;;;;5027291;28;20197;-66
2022/11/10 07:26:51;;;;;;;15.50;7.90;;;;;;;;;;5023569;28;20242;-67
2022/11/10 07:29:37;;;;;;;12.73;8.23;;;;;;;;;;5013240;28;20230;-65
2022/11/10 07:32:22;;;;;;;14.00;8.20;;;;;;;;;;5024864;28;20559;-66
2022/11/10 07:35:07;;;;;;;12.83;8.00;;;;;;;;;;5007220;28;20223;-66
2022/11/10 07:37:54;;;;;;;11.37;7.67;;;;;;;;;;5007629;28;20308;-67
2022/11/10 07:40:39;;;;;;;10.63;7.10;;;;;;;;;;5007782;28;20207;-67
2022/11/10 07:43:24;;;;;;;14.50;7.50;;;;;;;;;;5021565;28;20207;-67
2022/11/10 07:46:10;;;;;;;9.97;6.80;;;;;;;;;;5027083;28;20256;-67
2022/11/10 07:48:55;;;;;;;10.70;6.50;;;;;;;;;;5027094;28;20194;-67
2022/11/10 07:51:43;;;;;;;10.83;5.80;;;;;;;;;;5009941;28;20203;-70
2022/11/10 07:54:29;;;;;;;10.53;6.00;;;;;;;;;;5026809;28;20282;-68
2022/11/10 07:57:14;;;;;;;10.70;6.10;;;;;;;;;;5033547;28;20205;-68
2022/11/10 07:59:59;;;;;;;10.77;6.37;;;;;;;;;;5029332;28;20572;-67
2022/11/10 08:02:45;;;;;;;10.17;6.50;;;;;;;;;;5025383;28;20201;-69
2022/11/10 08:05:31;;;;;;;11.53;5.93;;;;;;;;;;5021188;28;20354;-68
2022/11/10 08:08:16;;;;;;;10.27;5.87;;;;;;;;;;5024424;28;20198;-66
2022/11/10 08:11:01;;;;;;;16.67;6.77;;;;;;;;;;5024967;28;20720;-67
2022/11/10 08:13:47;;;;;;;12.03;5.50;;;;;;;;;;5032562;28;20228;-67
2022/11/10 08:16:33;;;;;;;7.93;5.87;;;;;;;;;;5034046;28;20277;-66
2022/11/10 08:19:18;;;;;;;9.47;6.40;;;;;;;;;;5046468;28;20324;-65
2022/11/10 08:22:03;;;;;;;9.27;5.60;;;;;;;;;;5029702;28;20205;-67
2022/11/10 08:24:49;;;;;;;8.63;5.90;;;;;;;;;;5046499;28;20669;-68
2022/11/10 08:27:34;;;;;;;9.27;6.23;;;;;;;;;;5022968;28;20206;-67
2022/11/10 08:30:19;;;;;;;6.63;4.57;;;;;;;;;;5026300;28;20665;-67
2022/11/10 08:33:05;;;;;;;10.87;5.60;;;;;;;;;;5017266;28;20206;-67
2022/11/10 08:35:50;;;;;;;9.27;5.27;;;;;;;;;;5007061;28;20227;-67
2022/11/10 08:38:36;;;;;;;8.57;4.83;;;;;;;;;;5010007;28;20339;-68
2022/11/10 08:41:21;;;;;;;12.87;5.23;;;;;;;;;;5021973;28;20297;-69
2022/11/10 08:44:07;;;;;;;6.97;4.67;;;;;;;;;;5028241;28;20223;-70
2022/11/10 08:46:55;;;;;;;8.67;4.67;;;;;;;;;;5022731;28;20293;-70
2022/11/10 08:49:40;;;;;;;9.87;4.93;;;;;;;;;;5027552;28;20214;-68
2022/11/10 08:52:25;;;;;;;6.90;4.40;;;;;;;;;;5024389;28;20292;-66
2022/11/10 08:55:11;;;;;;;8.43;4.60;;;;;;;;;;5023929;28;20543;-67
2022/11/10 08:58:00;;;;;;;9.77;4.73;;;;;;;;;;5017840;28;20246;-67
2022/11/10 09:00:46;;;;;;;8.60;4.40;;;;;;;;;;5010024;28;20389;-67
2022/11/10 09:03:32;;;;;;;5.33;3.77;;;;;;;;;;5033973;28;20249;-68
2022/11/10 09:06:17;;;;;;;6.00;3.83;;;;;;;;;;5039815;28;20210;-68
2022/11/10 09:09:02;;;;;;;7.70;4.10;;;;;;;;;;5029300;28;20223;-66
2022/11/10 09:11:48;;;;;;;6.90;3.70;;;;;;;;;;5029913;28;20194;-66
2022/11/10 09:14:34;;;;;;;4.93;3.23;;;;;;;;;;5029496;28;20198;-66
2022/11/10 09:17:19;;;;;;;6.60;3.23;;;;;;;;;;5028595;28;20238;-69
2022/11/10 09:20:06;;;;;;;9.57;3.63;;;;;;;;;;5029344;28;20758;-67
2022/11/10 09:22:52;;;;;;;7.37;3.30;;;;;;;;;;5022155;28;20297;-67
2022/11/10 09:25:38;;;;;;;6.87;3.00;;;;;;;;;;5009926;28;20352;-67
2022/11/10 09:28:23;;;;;;;6.33;3.20;;;;;;;;;;5026287;28;20202;-67
2022/11/10 09:31:09;;;;;;;8.83;3.70;;;;;;;;;;5028323;28;20210;-69
2022/11/10 09:33:54;;;;;;;9.50;3.13;;;;;;;;;;5017775;28;20207;-67
2022/11/10 09:36:40;;;;;;;5.97;3.10;;;;;;;;;;5013144;28;20222;-70
2022/11/10 09:39:25;;;;;;;5.87;3.20;;;;;;;;;;5009158;28;20936;-69
2022/11/10 09:42:29;;;;;;;8.43;3.60;;;;;;;;;;5016462;28;20205;-66
2022/11/10 09:45:17;;;;;;;6.40;2.17;;;;;;;;;;5011358;28;20207;-68
2022/11/10 09:48:26;;;;;;;4.90;2.73;;;;;;;;;;5022068;28;20346;-68
2022/11/10 09:51:24;;;;;;;5.93;3.47;;;;;;;;;;5027973;28;20285;-67
2022/11/10 09:54:17;;;;;;;9.83;4.00;;;;;;;;;;5018752;28;20710;-67
2022/11/10 09:57:03;;;;;;;8.87;4.07;;;;;;;;;;5016369;28;20573;-67
2022/11/10 09:59:48;;;;;;;7.40;3.80;;;;;;;;;;5025622;28;20210;-66
2022/11/10 10:02:38;;;;;;;12.97;3.97;;;;;;;;;;5021271;28;20226;-68
2022/11/10 10:05:43;;;;;;;6.13;3.57;;;;;;;;;;5028727;28;20210;-68
2022/11/10 10:08:37;;;;;;;7.60;3.67;;;;;;;;;;5024955;28;20209;-69
2022/11/10 10:12:02;;;;;;;6.63;3.30;;;;;;;;;;5025198;28;20203;-71
2022/11/10 10:14:51;;;;;;;5.10;3.27;;;;;;;;;;5022969;28;20202;-69
2022/11/10 10:18:06;;;;;;;6.50;3.13;;;;;;;;;;5039535;28;20327;-72
2022/11/10 10:20:58;;;;;;;7.67;3.10;;;;;;;;;;5009454;28;20853;-72
2022/11/10 10:23:50;;;;;;;5.20;2.40;;;;;;;;;;5013921;28;20724;-67
2022/11/10 10:26:56;;;;;;;4.37;1.83;;;;;;;;;;5032389;28;20240;-68
2022/11/10 10:29:45;;;;;;;4.13;2.30;;;;;;;;;;5021758;28;20232;-66
2022/11/10 10:32:31;;;;;;;3.53;1.97;;;;;;;;;;5008348;28;20831;-70
2022/11/10 10:35:17;;;;;;;6.07;1.70;;;;;;;;;;5019644;28;20207;-69
2022/11/10 10:38:03;;;;;;;3.10;2.10;;;;;;;;;;5020466;28;20793;-67
2022/11/10 10:40:51;;;;;;;3.13;1.83;;;;;;;;;;5028194;28;20337;-67
2022/11/10 10:43:36;;;;;;;4.17;1.70;;;;;;;;;;5011836;28;20329;-66
2022/11/10 10:46:58;;;;;;;3.90;1.77;;;;;;;;;;5026909;28;20203;-66
2022/11/10 10:49:43;;;;;;;4.10;1.83;;;;;;;;;;5007399;28;20218;-65
2022/11/10 10:52:29;;;;;;;4.27;1.90;;;;;;;;;;5007101;28;20254;-67
2022/11/10 10:55:14;;;;;;;2.77;1.80;;;;;;;;;;5025535;28;20205;-67
2022/11/10 10:58:00;;;;;;;2.93;2.10;;;;;;;;;;5013036;28;20207;-67
2022/11/10 11:00:47;;;;;;;4.93;2.23;;;;;;;;;;5007240;28;20281;-67
2022/11/10 11:03:42;;;;;;;3.57;2.40;;;;;;;;;;5026701;28;20349;-67
2022/11/10 11:06:31;;;;;;;6.00;2.30;;;;;;;;;;5017269;28;20281;-68
2022/11/10 11:09:18;;;;;;;3.50;1.60;;;;;;;;;;5028202;28;20238;-66
2022/11/10 11:12:24;;;;;;;5.03;1.60;;;;;;;;;;5027997;28;20198;-66
2022/11/10 11:15:19;;;;;;;3.97;1.70;;;;;;;;;;5028036;28;20214;-66
2022/11/10 11:18:14;;;;;;;7.37;1.90;;;;;;;;;;5025826;28;20441;-65
2022/11/10 11:21:01;;;;;;;7.63;2.03;;;;;;;;;;5026381;28;20286;-67
2022/11/10 11:23:47;;;;;;;5.87;1.83;;;;;;;;;;5012608;28;20706;-66
2022/11/10 11:26:46;;;;;;;4.33;2.03;;;;;;;;;;5024935;28;20229;-67
2022/11/10 11:29:36;;;;;;;8.13;2.10;;;;;;;;;;5014660;28;20278;-67
2022/11/10 11:32:27;;;;;;;8.63;2.30;;;;;;;;;;5006653;28;20199;-65
2022/11/10 11:35:32;;;;;;;5.60;1.70;;;;;;;;;;5024144;28;20209;-65
2022/11/10 11:38:36;;;;;;;5.07;1.77;;;;;;;;;;5024940;28;20309;-68
2022/11/10 11:41:40;;;;;;;5.27;2.00;;;;;;;;;;5027701;28;20333;-64
2022/11/10 11:44:45;;;;;;;5.60;2.13;;;;;;;;;;5025764;28;20206;-65
2022/11/10 11:47:40;;;;;;;7.97;2.43;;;;;;;;;;5015006;28;20194;-66
2022/11/10 11:50:27;;;;;;;5.20;2.10;;;;;;;;;;5026497;28;20206;-65
2022/11/10 11:53:22;;;;;;;7.23;2.27;;;;;;;;;;4996545;28;20242;-68
2022/11/10 11:56:13;;;;;;;7.20;1.90;;;;;;;;;;5026125;28;20226;-65
2022/11/10 11:59:12;;;;;;;5.67;2.17;;;;;;;;;;5025108;28;20198;-65
2022/11/10 12:02:02;;;;;;;10.40;2.13;;;;;;;;;;5020003;28;20224;-64
2022/11/10 12:04:47;;;;;;;13.17;2.67;;;;;;;;;;5020926;28;20249;-66
2022/11/10 12:07:44;;;;;;;5.20;1.80;;;;;;;;;;5024360;28;20666;-66
2022/11/10 12:10:35;;;;;;;7.40;1.97;;;;;;;;;;5006183;28;20231;-68
2022/11/10 12:13:43;;;;;;;6.77;2.33;;;;;;;;;;5006120;28;20242;-69
2022/11/10 12:16:29;;;;;;;7.87;1.80;;;;;;;;;;5005920;28;20217;-68
2022/11/10 12:19:23;;;;;;;7.77;2.27;;;;;;;;;;5015803;28;20252;-71
2022/11/10 12:22:12;;;;;;;11.33;2.60;;;;;;;;;;5026312;28;20297;-66
2022/11/10 12:25:16;;;;;;;7.37;1.87;;;;;;;;;;5017146;28;20254;-65
2022/11/10 12:28:05;;;;;;;7.30;2.47;;;;;;;;;;5019940;28;20345;-67
2022/11/10 12:31:09;;;;;;;8.20;2.60;;;;;;;;;;5025969;28;20190;-66
2022/11/10 12:34:03;;;;;;;10.53;2.27;;;;;;;;;;5017945;28;20303;-66
2022/11/10 12:36:48;;;;;;;6.00;1.70;;;;;;;;;;5009652;28;20751;-66
2022/11/10 12:39:54;;;;;;;5.67;1.97;;;;;;;;;;5005523;28;20203;-67
2022/11/10 12:43:00;;;;;;;9.23;2.37;;;;;;;;;;5006939;28;20671;-67
2022/11/10 12:45:46;;;;;;;8.83;2.10;;;;;;;;;;5006968;28;20199;-70
2022/11/10 12:48:56;;;;;;;7.50;1.73;;;;;;;;;;5020861;28;20202;-66
2022/11/10 12:51:57;;;;;;;8.90;2.03;;;;;;;;;;5022327;28;20334;-67
2022/11/10 12:55:01;;;;;;;4.10;1.83;;;;;;;;;;5012765;28;20250;-66
2022/11/10 12:57:46;;;;;;;7.67;2.00;;;;;;;;;;5024043;28;20225;-67
2022/11/10 13:00:36;;;;;;;12.07;2.00;;;;;;;;;;5005600;28;20203;-66
2022/11/10 13:03:31;;;;;;;8.03;1.87;;;;;;;;;;5035445;28;20220;-66
2022/11/10 13:06:35;;;;;;;8.57;2.07;;;;;;;;;;5005387;28;20176;-66
2022/11/10 13:09:24;;;;;;;11.57;2.43;;;;;;;;;;5025705;28;20226;-68
2022/11/10 13:12:10;;;;;;;12.00;2.10;;;;;;;;;;5032637;28;20376;-65
2022/11/10 13:14:55;;;;;;;9.57;2.53;;;;;;;;;;5016802;28;20207;-65
2022/11/10 13:17:41;;;;;;;7.60;2.30;;;;;;;;;;5008087;28;20572;-70
2022/11/10 13:20:46;;;;;;;7.23;2.10;;;;;;;;;;5032522;28;20291;-66
2022/11/10 13:23:32;;;;;;;8.47;2.40;;;;;;;;;;5027316;28;20285;-67
2022/11/10 13:26:36;;;;;;;7.43;1.90;;;;;;;;;;5028546;28;20281;-67
2022/11/10 13:29:35;;;;;;;6.37;2.10;;;;;;;;;;5023446;28;20205;-67
2022/11/10 13:32:23;;;;;;;7.47;1.83;;;;;;;;;;5009780;28;20250;-66
2022/11/10 13:35:27;;;;;;;9.23;2.47;;;;;;;;;;5009277;28;20207;-67
2022/11/10 13:38:31;;;;;;;12.00;2.20;;;;;;;;;;5022068;28;21228;-66
2022/11/10 13:41:18;;;;;;;11.70;2.30;;;;;;;;;;5028986;28;20543;-66
2022/11/10 13:44:18;;;;;;;8.17;2.23;;;;;;;;;;5017465;28;20255;-67
2022/11/10 13:47:07;;;;;;;10.83;2.00;;;;;;;;;;5029332;28;20201;-68
2022/11/10 13:49:58;;;;;;;9.93;2.30;;;;;;;;;;5035301;28;20676;-65
2022/11/10 13:52:47;;;;;;;9.90;2.50;;;;;;;;;;5017321;28;20785;-67
2022/11/10 13:55:32;;;;;;;9.37;2.37;;;;;;;;;;5028936;28;20201;-65
2022/11/10 13:58:44;;;;;;;7.30;2.10;;;;;;;;;;5025519;28;20354;-65
2022/11/10 14:01:30;;;;;;;6.93;2.17;;;;;;;;;;5029484;28;20185;-65
2022/11/10 14:04:34;;;;;;;11.23;2.80;;;;;;;;;;5029444;28;20207;-67
2022/11/10 14:07:20;;;;;;;8.63;2.20;;;;;;;;;;5008343;28;20206;-69
2022/11/10 14:10:19;;;;;;;8.20;2.30;;;;;;;;;;5015601;28;20242;-66
2022/11/10 14:13:05;;;;;;;8.60;2.00;;;;;;;;;;5042447;28;20206;-66
2022/11/10 14:15:52;;;;;;;5.37;2.00;;;;;;;;;;5009344;28;20326;-67
2022/11/10 14:18:39;;;;;;;8.17;2.07;;;;;;;;;;5028754;28;20694;-66
2022/11/10 14:21:42;;;;;;;6.07;2.10;;;;;;;;;;5009180;28;20191;-68
2022/11/10 14:24:28;;;;;;;9.67;2.40;;;;;;;;;;5019815;28;20214;-66
2022/11/10 14:27:32;;;;;;;10.40;2.33;;;;;;;;;;5034064;28;20308;-67
2022/11/10 14:30:24;;;;;;;6.43;2.40;;;;;;;;;;5016173;28;20199;-67
2022/11/10 14:33:27;;;;;;;10.87;2.93;;;;;;;;;;5011021;28;20242;-67
2022/11/10 14:36:13;;;;;;;8.97;2.67;;;;;;;;;;5010409;28;20565;-67
2022/11/10 14:38:58;;;;;;;8.23;2.83;;;;;;;;;;5023409;28;20199;-67
2022/11/10 14:41:46;;;;;;;8.77;3.10;;;;;;;;;;5014682;28;20197;-67
2022/11/10 14:44:32;;;;;;;10.03;3.50;;;;;;;;;;5032562;28;20199;-67
2022/11/10 14:47:21;;;;;;;10.00;3.63;;;;;;;;;;5021159;28;20207;-67
2022/11/10 14:50:06;;;;;;;11.33;3.23;;;;;;;;;;5032545;28;20249;-67
2022/11/10 14:52:56;;;;;;;10.03;3.53;;;;;;;;;;5032496;28;20280;-67
2022/11/10 14:55:42;;;;;;;14.70;4.10;;;;;;;;;;5022307;28;20199;-67
2022/11/10 14:58:30;;;;;;;15.60;4.20;;;;;;;;;;5030129;28;20342;-67
2022/11/10 15:01:23;;;;;;;9.07;3.60;;;;;;;;;;5032364;28;20204;-67
2022/11/10 15:04:09;;;;;;;12.83;3.63;;;;;;;;;;5033010;28;20195;-66
2022/11/10 15:06:55;;;;;;;11.40;3.47;;;;;;;;;;5031468;28;20210;-67
2022/11/10 15:09:41;;;;;;;12.03;4.10;;;;;;;;;;5031357;28;20211;-67
2022/11/10 15:12:28;;;;;;;13.63;3.83;;;;;;;;;;5017863;28;20678;-66
2022/11/10 15:15:14;;;;;;;9.17;3.67;;;;;;;;;;5026929;28;20289;-67
2022/11/10 15:18:00;;;;;;;8.83;3.80;;;;;;;;;;5031102;28;20234;-66
2022/11/10 15:20:54;;;;;;;9.30;3.80;;;;;;;;;;5027327;28;20294;-66
2022/11/10 15:23:39;;;;;;;12.07;4.07;;;;;;;;;;5025973;28;20306;-67
2022/11/10 15:26:25;;;;;;;9.53;3.67;;;;;;;;;;5030782;28;20214;-66
2022/11/10 15:29:19;;;;;;;9.73;3.37;;;;;;;;;;5016475;28;20198;-67
2022/11/10 15:32:12;;;;;;;11.33;4.03;;;;;;;;;;5016310;28;20766;-67
2022/11/10 15:35:07;;;;;;;8.67;4.03;;;;;;;;;;5030228;28;20273;-67
2022/11/10 15:37:57;;;;;;;10.50;3.77;;;;;;;;;;5031249;28;20289;-67
2022/11/10 15:40:43;;;;;;;14.93;4.70;;;;;;;;;;5031735;28;20250;-67
2022/11/10 15:43:29;;;;;;;10.40;4.67;;;;;;;;;;5031329;28;20206;-67
2022/11/10 15:46:14;;;;;;;11.53;4.53;;;;;;;;;;5020393;28;20199;-67
2022/11/10 15:49:02;;;;;;;12.80;4.87;;;;;;;;;;5020846;28;20341;-67
2022/11/10 15:51:49;;;;;;;9.27;5.10;;;;;;;;;;5016382;28;20234;-68
2022/11/10 15:54:34;;;;;;;15.10;4.07;;;;;;;;;;5010293;28;20215;-68
2022/11/10 15:57:19;;;;;;;18.07;4.97;;;;;;;;;;5010369;28;20307;-68
2022/11/10 16:00:08;;;;;;;18.07;4.63;;;;;;;;;;5011164;28;20202;-68
2022/11/10 16:02:53;;;;;;;12.70;4.20;;;;;;;;;;5009792;28;20713;-69
2022/11/10 16:05:40;;;;;;;14.53;4.30;;;;;;;;;;5011770;28;20211;-68
2022/11/10 16:08:42;;;;;;;12.00;4.07;;;;;;;;;;5010714;28;20227;-68
2022/11/10 16:11:28;;;;;;;9.07;4.07;;;;;;;;;;5011278;28;20682;-68
2022/11/10 16:14:14;;;;;;;11.67;4.90;;;;;;;;;;5011465;28;20202;-68
2022/11/10 16:17:00;;;;;;;10.33;5.03;;;;;;;;;;5009959;28;20242;-68
2022/11/10 16:19:45;;;;;;;14.83;6.63;;;;;;;;;;5009201;28;20203;-69
2022/11/10 16:22:30;;;;;;;12.50;4.90;;;;;;;;;;5014423;28;20227;-70
2022/11/10 16:25:16;;;;;;;11.60;5.10;;;;;;;;;;5009001;28;20297;-70
2022/11/10 16:28:12;;;;;;;11.70;5.57;;;;;;;;;;5011079;28;20700;-70
2022/11/10 16:30:58;;;;;;;17.60;5.60;;;;;;;;;;5010612;28;20202;-70
2022/11/10 16:33:43;;;;;;;16.30;6.33;;;;;;;;;;5013219;28;20262;-70
2022/11/10 16:36:30;;;;;;;14.17;5.40;;;;;;;;;;5009508;28;20206;-71
2022/11/10 16:39:15;;;;;;;14.63;6.43;;;;;;;;;;5009302;28;20214;-72
2022/11/10 16:42:00;;;;;;;14.97;6.50;;;;;;;;;;4997694;28;20202;-72
2022/11/10 16:44:46;;;;;;;12.73;5.90;;;;;;;;;;5010389;28;20214;-67
2022/11/10 16:47:32;;;;;;;17.47;5.67;;;;;;;;;;5010040;28;20223;-68
2022/11/10 16:50:21;;;;;;;17.70;6.57;;;;;;;;;;5019231;28;20664;-68